sensor_id;sensor_type;location;lat;lon;timestamp;pressure;altitude;pressure_sealevel;temperature;humidity
2184;BME280;1098;48.940;8.962;2022-10-31T00:01:41;98958.31;;;10.86;100.00
2184;BME280;1098;48.940;8.962;2022-10-31T00:04:10;98959.63;;;10.77;100.00
2184;BME280;1098;48.940;8.962;2022-10-31T00:06:38;98961.53;;;10.70;100.00
2184;BME280;1098;48.940;8.962;2022-10-31T00:09:06;98967.88;;;10.88;100.00
2184;BME280;1098;48.940;8.962;2022-10-31T00:11:34;98971.47;;;11.14;100.00
2184;BME280;1098;48.940;8.962;2022-10-31T00:14:04;98965.75;;;10.97;100.00
2184;BME280;1098;48.940;8.962;2022-10-31T00:16:32;98966.72;;;10.71;100.00
2184;BME280;1098;48.940;8.962;2022-10-31T00:19:02;98958.97;;;10.81;100.00
2184;BME280;1098;48.940;8.962;2022-10-31T00:21:31;98967.88;;;10.88;100.00
2184;BME280;1098;48.940;8.962;2022-10-31T00:23:59;98971.94;;;11.04;100.00
2184;BME280;1098;48.940;8.962;2022-10-31T00:26:28;98967.22;;;10.93;100.00
2184;BME280;1098;48.940;8.962;2022-10-31T00:28:57;98964.97;;;10.90;100.00
2184;BME280;1098;48.940;8.962;2022-10-31T00:31:26;98955.28;;;11.07;100.00
2184;BME280;1098;48.940;8.962;2022-10-31T00:33:54;98958.31;;;10.86;100.00
2184;BME280;1098;48.940;8.962;2022-10-31T00:36:24;98956.47;;;11.18;100.00
2184;BME280;1098;48.940;8.962;2022-10-31T00:38:53;98952.09;;;10.85;100.00
2184;BME280;1098;48.940;8.962;2022-10-31T00:41:23;98952.59;;;10.69;100.00
2184;BME280;1098;48.940;8.962;2022-10-31T00:43:51;98966.69;;;10.33;100.00
2184;BME280;1098;48.940;8.962;2022-10-31T00:46:19;98959.03;;;10.30;100.00
2184;BME280;1098;48.940;8.962;2022-10-31T00:48:49;98958.72;;;10.51;100.00
2184;BME280;1098;48.940;8.962;2022-10-31T00:51:18;98959.97;;;10.55;100.00
2184;BME280;1098;48.940;8.962;2022-10-31T00:53:48;98961.56;;;10.63;100.00
2184;BME280;1098;48.940;8.962;2022-10-31T00:56:18;98955.50;;;10.67;100.00
2184;BME280;1098;48.940;8.962;2022-10-31T00:58:47;98952.91;;;10.86;100.00
2184;BME280;1098;48.940;8.962;2022-10-31T01:01:15;98946.44;;;11.68;100.00
2184;BME280;1098;48.940;8.962;2022-10-31T01:03:43;98951.69;;;10.82;100.00
2184;BME280;1098;48.940;8.962;2022-10-31T01:06:12;98956.19;;;10.94;100.00
2184;BME280;1098;48.940;8.962;2022-10-31T01:08:41;98954.50;;;11.00;100.00
2184;BME280;1098;48.940;8.962;2022-10-31T01:11:12;98932.19;;;10.80;100.00
2184;BME280;1098;48.940;8.962;2022-10-31T01:13:42;98948.28;;;10.99;100.00
2184;BME280;1098;48.940;8.962;2022-10-31T01:16:11;98944.91;;;10.66;100.00
2184;BME280;1098;48.940;8.962;2022-10-31T01:18:39;98946.66;;;10.54;100.00
2184;BME280;1098;48.940;8.962;2022-10-31T01:21:08;98945.41;;;10.56;100.00
2184;BME280;1098;48.940;8.962;2022-10-31T01:23:37;98947.22;;;10.62;100.00
2184;BME280;1098;48.940;8.962;2022-10-31T01:26:06;98941.53;;;10.77;100.00
2184;BME280;1098;48.940;8.962;2022-10-31T01:28:35;98938.44;;;10.74;100.00
2184;BME280;1098;48.940;8.962;2022-10-31T01:31:06;98940.16;;;10.61;100.00
2184;BME280;1098;48.940;8.962;2022-10-31T01:33:35;98947.50;;;10.54;100.00
2184;BME280;1098;48.940;8.962;2022-10-31T01:36:10;98943.97;;;10.47;100.00
2184;BME280;1098;48.940;8.962;2022-10-31T01:38:41;98946.56;;;10.29;100.00
2184;BME280;1098;48.940;8.962;2022-10-31T01:41:10;98939.63;;;10.40;100.00
2184;BME280;1098;48.940;8.962;2022-10-31T01:43:41;98938.00;;;10.77;100.00
2184;BME280;1098;48.940;8.962;2022-10-31T01:46:11;98934.38;;;10.58;100.00
2184;BME280;1098;48.940;8.962;2022-10-31T01:48:39;98932.72;;;10.57;100.00
2184;BME280;1098;48.940;8.962;2022-10-31T01:51:09;98928.59;;;10.48;100.00
2184;BME280;1098;48.940;8.962;2022-10-31T01:53:40;98941.78;;;10.31;100.00
2184;BME280;1098;48.940;8.962;2022-10-31T01:58:40;98924.31;;;10.33;100.00
2184;BME280;1098;48.940;8.962;2022-10-31T02:01:10;98931.53;;;10.40;100.00
2184;BME280;1098;48.940;8.962;2022-10-31T02:03:40;98933.16;;;10.54;100.00
2184;BME280;1098;48.940;8.962;2022-10-31T02:06:10;98933.19;;;10.41;100.00
2184;BME280;1098;48.940;8.962;2022-10-31T02:08:40;98937.06;;;10.00;100.00
2184;BME280;1098;48.940;8.962;2022-10-31T02:11:08;98936.00;;;10.01;100.00
2184;BME280;1098;48.940;8.962;2022-10-31T02:13:36;98930.97;;;10.31;100.00
2184;BME280;1098;48.940;8.962;2022-10-31T02:16:08;98933.09;;;10.03;100.00
2184;BME280;1098;48.940;8.962;2022-10-31T02:18:40;98937.94;;;9.94;100.00
2184;BME280;1098;48.940;8.962;2022-10-31T02:21:11;98933.78;;;9.85;100.00
2184;BME280;1098;48.940;8.962;2022-10-31T02:24:00;98942.50;;;9.87;100.00
2184;BME280;1098;48.940;8.962;2022-10-31T02:26:41;98932.94;;;9.91;100.00
2184;BME280;1098;48.940;8.962;2022-10-31T02:29:29;98917.31;;;9.99;100.00
2184;BME280;1098;48.940;8.962;2022-10-31T02:32:04;98936.47;;;9.91;100.00
2184;BME280;1098;48.940;8.962;2022-10-31T02:34:39;98937.13;;;9.74;100.00
2184;BME280;1098;48.940;8.962;2022-10-31T02:37:11;98946.69;;;9.63;100.00
2184;BME280;1098;48.940;8.962;2022-10-31T02:39:42;98942.72;;;9.85;100.00
2184;BME280;1098;48.940;8.962;2022-10-31T02:42:16;98938.53;;;9.96;100.00
2184;BME280;1098;48.940;8.962;2022-10-31T02:44:48;98937.84;;;10.20;100.00
2184;BME280;1098;48.940;8.962;2022-10-31T02:47:21;98934.22;;;9.75;100.00
2184;BME280;1098;48.940;8.962;2022-10-31T02:49:53;98933.81;;;9.65;100.00
2184;BME280;1098;48.940;8.962;2022-10-31T02:52:26;98933.56;;;9.93;100.00
2184;BME280;1098;48.940;8.962;2022-10-31T02:55:08;98923.38;;;9.95;100.00
2184;BME280;1098;48.940;8.962;2022-10-31T02:57:37;98934.84;;;9.64;100.00
2184;BME280;1098;48.940;8.962;2022-10-31T03:00:07;98929.88;;;9.68;100.00
2184;BME280;1098;48.940;8.962;2022-10-31T03:02:53;98935.44;;;9.92;100.00
2184;BME280;1098;48.940;8.962;2022-10-31T03:08:15;98931.50;;;9.88;100.00
2184;BME280;1098;48.940;8.962;2022-10-31T03:10:47;98930.91;;;9.73;100.00
2184;BME280;1098;48.940;8.962;2022-10-31T03:13:21;98932.31;;;9.89;100.00
2184;BME280;1098;48.940;8.962;2022-10-31T03:15:55;98945.63;;;9.77;100.00
2184;BME280;1098;48.940;8.962;2022-10-31T03:18:32;98946.69;;;9.63;100.00
2184;BME280;1098;48.940;8.962;2022-10-31T03:21:05;98946.28;;;9.66;100.00
2184;BME280;1098;48.940;8.962;2022-10-31T03:23:35;98940.91;;;9.53;100.00
2184;BME280;1098;48.940;8.962;2022-10-31T03:26:05;98945.88;;;9.49;100.00
2184;BME280;1098;48.940;8.962;2022-10-31T03:28:35;98945.06;;;9.55;100.00
2184;BME280;1098;48.940;8.962;2022-10-31T03:31:07;98945.47;;;9.46;100.00
2184;BME280;1098;48.940;8.962;2022-10-31T03:33:39;98938.81;;;9.42;100.00
2184;BME280;1098;48.940;8.962;2022-10-31T03:36:08;98943.78;;;9.58;100.00
2184;BME280;1098;48.940;8.962;2022-10-31T03:38:39;98947.13;;;9.40;100.00
2184;BME280;1098;48.940;8.962;2022-10-31T03:41:10;98950.03;;;9.52;100.00
2184;BME280;1098;48.940;8.962;2022-10-31T03:43:40;98940.69;;;9.41;100.00
2184;BME280;1098;48.940;8.962;2022-10-31T03:46:10;98941.91;;;9.72;100.00
2184;BME280;1098;48.940;8.962;2022-10-31T03:48:39;98949.13;;;9.91;100.00
2184;BME280;1098;48.940;8.962;2022-10-31T03:51:09;98948.72;;;9.87;100.00
2184;BME280;1098;48.940;8.962;2022-10-31T03:53:39;98948.88;;;10.12;100.00
2184;BME280;1098;48.940;8.962;2022-10-31T03:56:13;98946.44;;;9.97;100.00
2184;BME280;1098;48.940;8.962;2022-10-31T03:58:47;98941.25;;;9.96;100.00
2184;BME280;1098;48.940;8.962;2022-10-31T04:01:17;98947.72;;;9.69;100.00
2184;BME280;1098;48.940;8.962;2022-10-31T04:03:48;98947.94;;;9.60;100.00
2184;BME280;1098;48.940;8.962;2022-10-31T04:06:17;98938.63;;;9.50;100.00
2184;BME280;1098;48.940;8.962;2022-10-31T04:08:48;98941.72;;;9.60;100.00
2184;BME280;1098;48.940;8.962;2022-10-31T04:11:18;98933.84;;;9.19;100.00
2184;BME280;1098;48.940;8.962;2022-10-31T04:14:01;98925.97;;;9.24;100.00
2184;BME280;1098;48.940;8.962;2022-10-31T04:16:30;98933.03;;;9.12;100.00
2184;BME280;1098;48.940;8.962;2022-10-31T04:19:00;98930.94;;;9.47;100.00
2184;BME280;1098;48.940;8.962;2022-10-31T04:21:29;98929.28;;;9.46;100.00
2184;BME280;1098;48.940;8.962;2022-10-31T04:23:58;98927.63;;;9.05;100.00
2184;BME280;1098;48.940;8.962;2022-10-31T04:26:29;98933.00;;;8.92;100.00
2184;BME280;1098;48.940;8.962;2022-10-31T04:28:57;98929.69;;;8.90;100.00
2184;BME280;1098;48.940;8.962;2022-10-31T04:31:26;98926.34;;;8.81;100.00
2184;BME280;1098;48.940;8.962;2022-10-31T04:33:55;98931.75;;;8.88;100.00
2184;BME280;1098;48.940;8.962;2022-10-31T04:36:24;98927.19;;;8.82;100.00
2184;BME280;1098;48.940;8.962;2022-10-31T04:38:53;98924.72;;;8.87;100.00
2184;BME280;1098;48.940;8.962;2022-10-31T04:41:43;98931.75;;;8.88;100.00
2184;BME280;1098;48.940;8.962;2022-10-31T04:44:14;98927.78;;;8.77;100.00
2184;BME280;1098;48.940;8.962;2022-10-31T04:46:46;98933.41;;;8.89;100.00
2184;BME280;1098;48.940;8.962;2022-10-31T04:49:14;98922.63;;;9.15;100.00
2184;BME280;1098;48.940;8.962;2022-10-31T04:51:43;98924.31;;;9.10;100.00
2184;BME280;1098;48.940;8.962;2022-10-31T04:54:13;98918.91;;;9.23;100.00
2184;BME280;1098;48.940;8.962;2022-10-31T04:56:56;98908.56;;;9.26;100.00
2184;BME280;1098;48.940;8.962;2022-10-31T04:59:24;98912.09;;;9.14;100.00
2184;BME280;1098;48.940;8.962;2022-10-31T05:01:53;98911.44;;;9.18;100.00
2184;BME280;1098;48.940;8.962;2022-10-31T05:04:40;98905.00;;;9.46;100.00
2184;BME280;1098;48.940;8.962;2022-10-31T05:07:10;98913.09;;;9.46;100.00
2184;BME280;1098;48.940;8.962;2022-10-31T05:09:38;98908.13;;;9.43;100.00
2184;BME280;1098;48.940;8.962;2022-10-31T05:12:06;98906.50;;;9.35;100.00
2184;BME280;1098;48.940;8.962;2022-10-31T05:15:04;98898.41;;;9.28;100.00
2184;BME280;1098;48.940;8.962;2022-10-31T05:17:50;98900.25;;;9.08;100.00
2184;BME280;1098;48.940;8.962;2022-10-31T05:20:57;98904.59;;;8.96;100.00
2184;BME280;1098;48.940;8.962;2022-10-31T05:23:37;98897.75;;;9.46;100.00
2184;BME280;1098;48.940;8.962;2022-10-31T05:26:13;98895.06;;;9.00;100.00
2184;BME280;1098;48.940;8.962;2022-10-31T05:28:41;98888.84;;;8.80;100.00
2184;BME280;1098;48.940;8.962;2022-10-31T05:31:10;98886.75;;;9.15;100.00
2184;BME280;1098;48.940;8.962;2022-10-31T05:33:41;98886.78;;;9.28;100.00
2184;BME280;1098;48.940;8.962;2022-10-31T05:36:28;98884.25;;;8.74;100.00
2184;BME280;1098;48.940;8.962;2022-10-31T05:39:04;98875.78;;;9.16;100.00
2184;BME280;1098;48.940;8.962;2022-10-31T05:41:39;98874.53;;;8.86;100.00
2184;BME280;1098;48.940;8.962;2022-10-31T05:44:25;98878.28;;;8.91;100.00
2184;BME280;1098;48.940;8.962;2022-10-31T05:47:23;98875.78;;;8.96;100.00
2184;BME280;1098;48.940;8.962;2022-10-31T05:49:54;98875.13;;;8.61;100.00
2184;BME280;1098;48.940;8.962;2022-10-31T05:52:42;98873.47;;;8.74;100.00
2184;BME280;1098;48.940;8.962;2022-10-31T05:55:26;98877.84;;;8.68;100.00
2184;BME280;1098;48.940;8.962;2022-10-31T05:58:03;98877.25;;;8.86;100.00
2184;BME280;1098;48.940;8.962;2022-10-31T06:00:33;98869.56;;;8.76;100.00
2184;BME280;1098;48.940;8.962;2022-10-31T06:03:07;98875.16;;;8.94;100.00
2184;BME280;1098;48.940;8.962;2022-10-31T06:05:53;98871.22;;;8.97;100.00
2184;BME280;1098;48.940;8.962;2022-10-31T06:08:35;98870.16;;;8.58;100.00
2184;BME280;1098;48.940;8.962;2022-10-31T06:11:08;98871.38;;;8.43;100.00
2184;BME280;1098;48.940;8.962;2022-10-31T06:14:06;98875.31;;;8.53;100.00
2184;BME280;1098;48.940;8.962;2022-10-31T06:16:49;98883.66;;;8.72;100.00
2184;BME280;1098;48.940;8.962;2022-10-31T06:19:36;98884.50;;;8.72;100.00
2184;BME280;1098;48.940;8.962;2022-10-31T06:22:04;98893.59;;;8.65;100.00
2184;BME280;1098;48.940;8.962;2022-10-31T06:24:32;98895.44;;;8.57;100.00
2184;BME280;1098;48.940;8.962;2022-10-31T06:27:07;98908.75;;;8.72;100.00
2184;BME280;1098;48.940;8.962;2022-10-31T06:29:35;98935.81;;;8.57;100.00
2184;BME280;1098;48.940;8.962;2022-10-31T06:32:10;98954.09;;;8.69;100.00
2184;BME280;1098;48.940;8.962;2022-10-31T06:34:42;98962.06;;;9.23;100.00
2184;BME280;1098;48.940;8.962;2022-10-31T06:37:11;98960.38;;;9.02;100.00
2184;BME280;1098;48.940;8.962;2022-10-31T06:39:42;98949.59;;;8.89;100.00
2184;BME280;1098;48.940;8.962;2022-10-31T06:42:14;98944.84;;;9.04;100.00
2184;BME280;1098;48.940;8.962;2022-10-31T06:44:43;98939.88;;;9.27;100.00
2184;BME280;1098;48.940;8.962;2022-10-31T06:47:30;98939.06;;;9.34;100.00
2184;BME280;1098;48.940;8.962;2022-10-31T06:50:10;98930.53;;;9.10;100.00
2184;BME280;1098;48.940;8.962;2022-10-31T06:52:38;98935.91;;;9.37;100.00
2184;BME280;1098;48.940;8.962;2022-10-31T06:55:07;98932.41;;;9.29;100.00
2184;BME280;1098;48.940;8.962;2022-10-31T06:57:37;98921.81;;;9.28;100.00
2184;BME280;1098;48.940;8.962;2022-10-31T07:00:05;98921.38;;;9.57;100.00
2184;BME280;1098;48.940;8.962;2022-10-31T07:02:52;98911.03;;;9.41;100.00
2184;BME280;1098;48.940;8.962;2022-10-31T07:05:22;98918.69;;;9.51;100.00
2184;BME280;1098;48.940;8.962;2022-10-31T07:07:53;98906.25;;;9.43;100.00
2184;BME280;1098;48.940;8.962;2022-10-31T07:10:22;98913.09;;;9.46;100.00
2184;BME280;1098;48.940;8.962;2022-10-31T07:12:58;98907.88;;;9.64;100.00
2184;BME280;1098;48.940;8.962;2022-10-31T07:15:32;98914.28;;;9.83;100.00
2184;BME280;1098;48.940;8.962;2022-10-31T07:18:01;98924.28;;;9.76;100.00
2184;BME280;1098;48.940;8.962;2022-10-31T07:20:30;98926.22;;;10.13;100.00
2184;BME280;1098;48.940;8.962;2022-10-31T07:22:58;98932.06;;;10.04;100.00
2184;BME280;1098;48.940;8.962;2022-10-31T07:25:27;98930.88;;;9.93;100.00
2184;BME280;1098;48.940;8.962;2022-10-31T07:28:06;98931.84;;;10.12;100.00
2184;BME280;1098;48.940;8.962;2022-10-31T07:30:34;98923.28;;;10.28;100.00
2184;BME280;1098;48.940;8.962;2022-10-31T07:33:03;98914.75;;;10.31;100.00
2184;BME280;1098;48.940;8.962;2022-10-31T07:35:52;98919.19;;;10.06;100.00
2184;BME280;1098;48.940;8.962;2022-10-31T07:38:23;98916.94;;;9.96;100.00
2184;BME280;1098;48.940;8.962;2022-10-31T07:40:51;98910.53;;;10.42;100.00
2184;BME280;1098;48.940;8.962;2022-10-31T07:43:24;98910.09;;;9.93;100.00
2184;BME280;1098;48.940;8.962;2022-10-31T07:46:07;98902.78;;;10.07;100.00
2184;BME280;1098;48.940;8.962;2022-10-31T07:48:54;98902.72;;;10.27;100.00
2184;BME280;1098;48.940;8.962;2022-10-31T07:51:40;98901.03;;;10.39;100.00
2184;BME280;1098;48.940;8.962;2022-10-31T07:54:27;98896.34;;;10.59;100.00
2184;BME280;1098;48.940;8.962;2022-10-31T07:56:55;98891.19;;;10.51;100.00
2184;BME280;1098;48.940;8.962;2022-10-31T07:59:24;98892.50;;;10.36;100.00
2184;BME280;1098;48.940;8.962;2022-10-31T08:01:54;98893.88;;;10.51;100.00
2184;BME280;1098;48.940;8.962;2022-10-31T08:04:42;98895.06;;;10.93;100.00
2184;BME280;1098;48.940;8.962;2022-10-31T08:07:28;98896.09;;;10.61;100.00
2184;BME280;1098;48.940;8.962;2022-10-31T08:10:03;98895.53;;;10.84;100.00
2184;BME280;1098;48.940;8.962;2022-10-31T08:12:31;98885.50;;;10.91;100.00
2184;BME280;1098;48.940;8.962;2022-10-31T08:15:00;98878.69;;;11.13;100.00
2184;BME280;1098;48.940;8.962;2022-10-31T08:17:28;98872.63;;;11.18;100.00
2184;BME280;1098;48.940;8.962;2022-10-31T08:19:59;98856.16;;;11.62;100.00
2184;BME280;1098;48.940;8.962;2022-10-31T08:22:31;98863.91;;;10.84;100.00
2184;BME280;1098;48.940;8.962;2022-10-31T08:25:01;98860.34;;;10.90;100.00
2184;BME280;1098;48.940;8.962;2022-10-31T08:27:29;98861.28;;;10.78;100.00
2184;BME280;1098;48.940;8.962;2022-10-31T08:30:00;98862.03;;;10.85;100.00
2184;BME280;1098;48.940;8.962;2022-10-31T08:32:30;98862.66;;;11.12;100.00
2184;BME280;1098;48.940;8.962;2022-10-31T08:35:17;98860.34;;;11.58;100.00
2184;BME280;1098;48.940;8.962;2022-10-31T08:38:04;98859.84;;;11.25;100.00
2184;BME280;1098;48.940;8.962;2022-10-31T08:40:32;98856.25;;;11.31;100.00
2184;BME280;1098;48.940;8.962;2022-10-31T08:43:03;98855.94;;;11.21;100.00
2184;BME280;1098;48.940;8.962;2022-10-31T08:45:33;98850.34;;;11.41;100.00
2184;BME280;1098;48.940;8.962;2022-10-31T08:48:03;98852.56;;;11.44;100.00
2184;BME280;1098;48.940;8.962;2022-10-31T08:50:33;98862.56;;;11.43;100.00
2184;BME280;1098;48.940;8.962;2022-10-31T08:53:02;98854.56;;;11.55;100.00
2184;BME280;1098;48.940;8.962;2022-10-31T08:55:33;98847.88;;;11.57;100.00
2184;BME280;1098;48.940;8.962;2022-10-31T08:58:09;98851.38;;;12.01;100.00
2184;BME280;1098;48.940;8.962;2022-10-31T09:00:48;98851.56;;;12.18;100.00
2184;BME280;1098;48.940;8.962;2022-10-31T09:03:21;98852.34;;;11.88;100.00
2184;BME280;1098;48.940;8.962;2022-10-31T09:05:50;98842.34;;;11.89;100.00
2184;BME280;1098;48.940;8.962;2022-10-31T09:08:18;98848.13;;;11.92;100.00
2184;BME280;1098;48.940;8.962;2022-10-31T09:10:47;98849.59;;;12.07;100.00
2184;BME280;1098;48.940;8.962;2022-10-31T09:13:25;98842.88;;;12.27;100.00
2184;BME280;1098;48.940;8.962;2022-10-31T09:16:31;98838.44;;;12.33;100.00
2184;BME280;1098;48.940;8.962;2022-10-31T09:18:59;98834.19;;;12.25;100.00
2184;BME280;1098;48.940;8.962;2022-10-31T09:21:27;98834.53;;;12.70;100.00
2184;BME280;1098;48.940;8.962;2022-10-31T09:23:58;98831.59;;;12.60;100.00
2184;BME280;1098;48.940;8.962;2022-10-31T09:26:26;98825.25;;;12.66;100.00
2184;BME280;1098;48.940;8.962;2022-10-31T09:29:17;98823.78;;;12.52;100.00
2184;BME280;1098;48.940;8.962;2022-10-31T09:31:53;98819.16;;;12.94;100.00
2184;BME280;1098;48.940;8.962;2022-10-31T09:34:28;98807.84;;;12.97;100.00
2184;BME280;1098;48.940;8.962;2022-10-31T09:37:05;98801.38;;;13.33;100.00
2184;BME280;1098;48.940;8.962;2022-10-31T09:39:34;98805.66;;;13.29;100.00
2184;BME280;1098;48.940;8.962;2022-10-31T09:42:19;98798.34;;;13.30;100.00
2184;BME280;1098;48.940;8.962;2022-10-31T09:44:51;98797.38;;;13.36;100.00
2184;BME280;1098;48.940;8.962;2022-10-31T09:47:29;98778.97;;;13.50;100.00
2184;BME280;1098;48.940;8.962;2022-10-31T09:50:37;98795.03;;;14.20;100.00
2184;BME280;1098;48.940;8.962;2022-10-31T09:53:39;98778.94;;;14.75;100.00
2184;BME280;1098;48.940;8.962;2022-10-31T09:56:11;98785.72;;;14.44;100.00
2184;BME280;1098;48.940;8.962;2022-10-31T09:58:42;98794.63;;;14.11;100.00
2184;BME280;1098;48.940;8.962;2022-10-31T10:01:16;98789.50;;;14.88;100.00
2184;BME280;1098;48.940;8.962;2022-10-31T10:03:49;98781.38;;;14.43;100.00
2184;BME280;1098;48.940;8.962;2022-10-31T10:06:46;98772.69;;;14.18;100.00
2184;BME280;1098;48.940;8.962;2022-10-31T10:09:35;98775.88;;;14.26;100.00
2184;BME280;1098;48.940;8.962;2022-10-31T10:12:34;98779.13;;;14.12;100.00
2184;BME280;1098;48.940;8.962;2022-10-31T10:15:16;98780.84;;;14.18;100.00
2184;BME280;1098;48.940;8.962;2022-10-31T10:17:51;98772.09;;;14.27;100.00
2184;BME280;1098;48.940;8.962;2022-10-31T10:20:25;98765.63;;;14.45;100.00
2184;BME280;1098;48.940;8.962;2022-10-31T10:22:59;98762.63;;;14.92;100.00
2184;BME280;1098;48.940;8.962;2022-10-31T10:25:34;98748.94;;;14.53;100.00
2184;BME280;1098;48.940;8.962;2022-10-31T10:28:13;98755.69;;;14.51;100.00
2184;BME280;1098;48.940;8.962;2022-10-31T10:30:46;98748.94;;;14.53;100.00
2184;BME280;1098;48.940;8.962;2022-10-31T10:33:17;98748.00;;;14.81;100.00
2184;BME280;1098;48.940;8.962;2022-10-31T10:35:49;98743.16;;;14.66;100.00
2184;BME280;1098;48.940;8.962;2022-10-31T10:38:20;98732.56;;;15.59;100.00
2184;BME280;1098;48.940;8.962;2022-10-31T10:40:51;98729.84;;;15.42;100.00
2184;BME280;1098;48.940;8.962;2022-10-31T10:43:22;98725.94;;;15.33;100.00
2184;BME280;1098;48.940;8.962;2022-10-31T10:45:50;98724.06;;;15.38;100.00
2184;BME280;1098;48.940;8.962;2022-10-31T10:48:43;98718.06;;;16.29;100.00
2184;BME280;1098;48.940;8.962;2022-10-31T10:51:20;98713.09;;;16.53;100.00
2184;BME280;1098;48.940;8.962;2022-10-31T10:54:12;98709.38;;;16.32;100.00
2184;BME280;1098;48.940;8.962;2022-10-31T10:56:49;98709.53;;;15.93;100.00
2184;BME280;1098;48.940;8.962;2022-10-31T10:59:21;98706.63;;;16.32;100.00
2184;BME280;1098;48.940;8.962;2022-10-31T11:01:50;98701.50;;;16.67;100.00
2184;BME280;1098;48.940;8.962;2022-10-31T11:04:24;98697.91;;;16.62;100.00
2184;BME280;1098;48.940;8.962;2022-10-31T11:07:03;98698.28;;;16.11;100.00
2184;BME280;1098;48.940;8.962;2022-10-31T11:09:34;98683.81;;;16.43;100.00
2184;BME280;1098;48.940;8.962;2022-10-31T11:12:05;98678.28;;;17.02;100.00
2184;BME280;1098;48.940;8.962;2022-10-31T11:14:35;98680.31;;;16.47;100.00
2184;BME280;1098;48.940;8.962;2022-10-31T11:17:14;98672.78;;;16.28;100.00
2184;BME280;1098;48.940;8.962;2022-10-31T11:19:44;98664.88;;;16.26;100.00
2184;BME280;1098;48.940;8.962;2022-10-31T11:22:16;98658.44;;;15.78;100.00
2184;BME280;1098;48.940;8.962;2022-10-31T11:24:45;98656.91;;;16.20;100.00
2184;BME280;1098;48.940;8.962;2022-10-31T11:27:15;98649.97;;;15.80;100.00
2184;BME280;1098;48.940;8.962;2022-10-31T11:29:43;98649.44;;;16.37;100.00
2184;BME280;1098;48.940;8.962;2022-10-31T11:32:16;98649.03;;;16.23;100.00
2184;BME280;1098;48.940;8.962;2022-10-31T11:34:46;98651.28;;;16.63;100.00
2184;BME280;1098;48.940;8.962;2022-10-31T11:37:18;98628.03;;;16.98;100.00
2184;BME280;1098;48.940;8.962;2022-10-31T11:39:50;98634.63;;;17.07;100.00
2184;BME280;1098;48.940;8.962;2022-10-31T11:42:21;98635.47;;;17.12;100.00
2184;BME280;1098;48.940;8.962;2022-10-31T11:44:50;98643.03;;;16.95;100.00
2184;BME280;1098;48.940;8.962;2022-10-31T11:47:28;98632.84;;;16.80;100.00
2184;BME280;1098;48.940;8.962;2022-10-31T11:50:00;98641.31;;;16.79;100.00
2184;BME280;1098;48.940;8.962;2022-10-31T11:52:31;98636.28;;;16.66;100.00
2184;BME280;1098;48.940;8.962;2022-10-31T11:55:14;98629.88;;;16.82;100.00
2184;BME280;1098;48.940;8.962;2022-10-31T11:57:43;98630.06;;;16.70;100.00
2184;BME280;1098;48.940;8.962;2022-10-31T12:00:19;98624.06;;;16.73;100.00
2184;BME280;1098;48.940;8.962;2022-10-31T12:02:48;98622.50;;;16.82;100.00
2184;BME280;1098;48.940;8.962;2022-10-31T12:05:17;98622.00;;;16.54;100.00
2184;BME280;1098;48.940;8.962;2022-10-31T12:07:48;98618.53;;;17.10;100.00
2184;BME280;1098;48.940;8.962;2022-10-31T12:10:16;98613.22;;;16.46;100.00
2184;BME280;1098;48.940;8.962;2022-10-31T12:12:56;98610.91;;;16.65;100.00
2184;BME280;1098;48.940;8.962;2022-10-31T12:15:29;98605.78;;;16.74;100.00
2184;BME280;1098;48.940;8.962;2022-10-31T12:20:50;98586.00;;;16.99;100.00
2184;BME280;1098;48.940;8.962;2022-10-31T12:23:25;98581.50;;;16.72;100.00
2184;BME280;1098;48.940;8.962;2022-10-31T12:25:58;98579.25;;;16.64;100.00
2184;BME280;1098;48.940;8.962;2022-10-31T12:28:37;98578.84;;;16.88;100.00
2184;BME280;1098;48.940;8.962;2022-10-31T12:31:18;98574.47;;;16.81;100.00
2184;BME280;1098;48.940;8.962;2022-10-31T12:33:54;98577.16;;;16.76;100.00
2184;BME280;1098;48.940;8.962;2022-10-31T12:36:29;98572.38;;;17.04;100.00
2184;BME280;1098;48.940;8.962;2022-10-31T12:39:05;98572.06;;;16.53;100.00
2184;BME280;1098;48.940;8.962;2022-10-31T12:47:40;98563.28;;;16.83;100.00
2184;BME280;1098;48.940;8.962;2022-10-31T12:50:13;98559.22;;;16.48;100.00
2184;BME280;1098;48.940;8.962;2022-10-31T12:52:48;98554.13;;;16.62;100.00
2184;BME280;1098;48.940;8.962;2022-10-31T12:55:25;98545.47;;;16.70;100.00
2184;BME280;1098;48.940;8.962;2022-10-31T12:57:58;98543.53;;;16.66;100.00
2184;BME280;1098;48.940;8.962;2022-10-31T13:00:29;98528.47;;;16.58;100.00
2184;BME280;1098;48.940;8.962;2022-10-31T13:03:01;98522.78;;;16.23;100.00
2184;BME280;1098;48.940;8.962;2022-10-31T13:05:33;98517.31;;;16.23;100.00
2184;BME280;1098;48.940;8.962;2022-10-31T13:08:03;98526.06;;;16.20;100.00
2184;BME280;1098;48.940;8.962;2022-10-31T13:10:36;98512.13;;;16.21;100.00
2184;BME280;1098;48.940;8.962;2022-10-31T13:13:10;98509.31;;;16.48;100.00
2184;BME280;1098;48.940;8.962;2022-10-31T13:15:44;98499.22;;;16.48;100.00
2184;BME280;1098;48.940;8.962;2022-10-31T13:18:17;98504.06;;;16.36;100.00
2184;BME280;1098;48.940;8.962;2022-10-31T13:20:47;98494.19;;;16.72;100.00
2184;BME280;1098;48.940;8.962;2022-10-31T13:23:24;98490.69;;;16.35;100.00
2184;BME280;1098;48.940;8.962;2022-10-31T13:26:18;98478.69;;;16.36;100.00
2184;BME280;1098;48.940;8.962;2022-10-31T13:28:50;98485.97;;;16.67;100.00
2184;BME280;1098;48.940;8.962;2022-10-31T13:31:20;98484.84;;;16.63;100.00
2184;BME280;1098;48.940;8.962;2022-10-31T13:33:49;98486.13;;;17.13;100.00
2184;BME280;1098;48.940;8.962;2022-10-31T13:36:21;98485.13;;;18.05;100.00
2184;BME280;1098;48.940;8.962;2022-10-31T13:38:52;98487.53;;;18.37;100.00
2184;BME280;1098;48.940;8.962;2022-10-31T13:41:26;98476.88;;;17.34;100.00
2184;BME280;1098;48.940;8.962;2022-10-31T13:43:59;98472.16;;;18.62;100.00
2184;BME280;1098;48.940;8.962;2022-10-31T13:46:34;98478.28;;;17.93;100.00
2184;BME280;1098;48.940;8.962;2022-10-31T13:49:04;98479.13;;;17.78;100.00
2184;BME280;1098;48.940;8.962;2022-10-31T13:51:33;98478.03;;;17.84;100.00
2184;BME280;1098;48.940;8.962;2022-10-31T13:54:05;98487.31;;;17.73;100.00
2184;BME280;1098;48.940;8.962;2022-10-31T13:56:35;98488.09;;;17.38;100.00
2184;BME280;1098;48.940;8.962;2022-10-31T14:01:48;98474.72;;;17.41;100.00
2184;BME280;1098;48.940;8.962;2022-10-31T14:04:19;98476.88;;;17.19;100.00
2184;BME280;1098;48.940;8.962;2022-10-31T14:06:53;98473.88;;;17.31;100.00